Sandyston, New Jersey
Current Conditions -  °F | °C
As of 2:53 AM on Saturday 20 Dec 2014 (Local Time) from KFWN Reporting Station
Overcast Overcast  
Wind Chill: 23°   Ceiling: 2300
Heat Index: 29°   Visibility: 10mi
Dew Point: 20°   Wind: 6mph
Humidity: 69%   Direction: NA
Pressure: 30.18"   Gusts: NA
Location:  41.2928°N, 74.7397°W
Report Text: KFWN 200753Z AUTO VRB05KT 10SM OVC023 M02/M07 A3018 RMK AO2 SLP225 T10171067
Loading
Personal Weather Stations






























Interactive Weather Map New forecast layout! Learn more

10-Day Weather Forecast

Advertisements
Track Severe Weather on mobile